Time;durP1;ratioP1;P1;durP2;ratioP2;P2;SDS_P1;SDS_P2;PMS_P1;PMS_P2;Temp;Humidity;BMP_temperature;BMP_pressure;BME280_temperature;BME280_humidity;BME280_pressure;Samples;Min_cycle;Max_cycle;Signal;HPM_P1;HPM_P2
2022/06/27 00:00:22;;;;;;;5.05;3.45;;;;;;;18.31;97.46;101414.78;5012505;28;20181;-48
2022/06/27 00:02:48;;;;;;;6.68;3.55;;;;;;;18.35;98.65;101399.22;5012514;28;20613;-48
2022/06/27 00:05:13;;;;;;;9.10;3.90;;;;;;;18.29;99.34;101400.44;5011387;28;20297;-47
2022/06/27 00:07:40;;;;;;;8.68;4.07;;;;;;;18.26;100.00;101390.66;5012461;28;20203;-47
2022/06/27 00:10:06;;;;;;;5.57;3.33;;;;;;;18.26;100.00;101398.81;5011961;28;20197;-47
2022/06/27 00:12:32;;;;;;;8.77;4.22;;;;;;;18.26;100.00;101390.66;5012416;28;20591;-46
2022/06/27 00:14:58;;;;;;;8.32;4.38;;;;;;;18.26;100.00;101389.78;5011882;28;20208;-49
2022/06/27 00:17:24;;;;;;;7.75;4.07;;;;;;;18.27;100.00;101394.25;5026969;28;20239;-50
2022/06/27 00:19:49;;;;;;;9.00;4.30;;;;;;;18.27;100.00;101392.38;5027005;28;20195;-50
2022/06/27 00:22:15;;;;;;;6.53;3.88;;;;;;;18.27;100.00;101384.25;5011917;28;20720;-49
2022/06/27 00:24:40;;;;;;;6.20;3.80;;;;;;;18.24;100.00;101375.44;5011517;28;20243;-50
2022/06/27 00:27:06;;;;;;;10.15;4.43;;;;;;;18.26;100.00;101379.81;5011618;28;20577;-50
2022/06/27 00:29:31;;;;;;;6.63;3.97;;;;;;;18.24;100.00;101389.88;5010441;28;20201;-50
2022/06/27 00:31:57;;;;;;;8.98;3.80;;;;;;;18.24;100.00;101372.75;5026995;28;20173;-48
2022/06/27 00:34:22;;;;;;;7.82;3.38;;;;;;;18.26;100.00;101389.78;5011147;28;20187;-49
2022/06/27 00:36:48;;;;;;;10.27;3.90;;;;;;;18.25;100.00;101369.91;5011811;28;20325;-48
2022/06/27 00:39:13;;;;;;;7.05;3.30;;;;;;;18.22;100.00;101364.69;5011267;28;20628;-50
2022/06/27 00:41:39;;;;;;;8.82;3.63;;;;;;;18.24;100.00;101342.91;5011949;28;20165;-47
2022/06/27 00:44:05;;;;;;;5.30;3.40;;;;;;;18.21;100.00;101340.38;5011414;28;20161;-48
2022/06/27 00:46:30;;;;;;;7.10;3.75;;;;;;;18.21;100.00;101337.66;5026469;28;20200;-47
2022/06/27 00:48:57;;;;;;;11.32;3.72;;;;;;;18.22;100.00;101345.69;5026392;28;20211;-53
2022/06/27 00:51:25;;;;;;;4.93;3.38;;;;;;;18.17;100.00;101338.81;5010923;28;20264;-47
2022/06/27 00:53:53;;;;;;;6.30;3.42;;;;;;;18.19;100.00;101343.19;5011156;28;20597;-46
2022/06/27 00:56:19;;;;;;;7.07;3.45;;;;;;;18.18;100.00;101346.00;5011306;28;20251;-47
2022/06/27 00:58:45;;;;;;;7.50;3.40;;;;;;;18.17;100.00;101350.56;5026210;28;20173;-49
2022/06/27 01:01:11;;;;;;;7.63;3.38;;;;;;;18.13;100.00;101359.84;5009819;28;20211;-50
2022/06/27 01:03:36;;;;;;;8.55;3.35;;;;;;;18.15;100.00;101357.00;5009364;28;20239;-52
2022/06/27 01:06:03;;;;;;;9.38;3.92;;;;;;;18.12;100.00;101369.78;5026532;28;20219;-49
2022/06/27 01:08:29;;;;;;;8.20;4.20;;;;;;;18.01;100.00;101347.88;5011164;28;20300;-49
2022/06/27 01:10:54;;;;;;;8.35;4.07;;;;;;;18.02;100.00;101327.97;5026383;28;20306;-51
2022/06/27 01:13:21;;;;;;;7.68;3.38;;;;;;;18.02;100.00;101322.53;5010975;28;20615;-51
2022/06/27 01:15:47;;;;;;;5.28;3.70;;;;;;;17.99;100.00;101306.44;5011471;28;20524;-48
2022/06/27 01:18:13;;;;;;;6.82;3.80;;;;;;;17.99;100.00;101319.13;5009791;28;20181;-47
2022/06/27 01:20:45;;;;;;;9.20;4.30;;;;;;;17.99;100.00;101328.13;5025964;28;20522;-48
2022/06/27 01:23:12;;;;;;;8.82;3.60;;;;;;;18.05;100.00;101338.59;5010706;28;20307;-49
2022/06/27 01:25:38;;;;;;;6.68;3.40;;;;;;;17.98;100.00;101353.50;5010518;28;20169;-47
2022/06/27 01:28:05;;;;;;;10.38;4.10;;;;;;;18.00;100.00;101335.31;5026025;28;20575;-48
2022/06/27 01:30:32;;;;;;;6.80;3.70;;;;;;;18.01;100.00;101331.63;5025902;28;20193;-46
2022/06/27 01:32:58;;;;;;;9.13;3.88;;;;;;;18.00;100.00;101324.47;5025677;28;20177;-49
2022/06/27 01:35:26;;;;;;;9.73;4.32;;;;;;;18.01;100.00;101331.63;5009229;28;20176;-51
2022/06/27 01:37:51;;;;;;;8.63;4.07;;;;;;;18.01;100.00;101336.19;5010360;28;20196;-48
2022/06/27 01:40:17;;;;;;;7.13;3.80;;;;;;;17.98;100.00;101337.25;5026109;28;20183;-48
2022/06/27 01:42:43;;;;;;;7.25;3.80;;;;;;;17.98;100.00;101337.25;5010702;28;20168;-48
2022/06/27 01:45:10;;;;;;;8.50;3.60;;;;;;;18.00;100.00;101332.59;5025257;28;20205;-49
2022/06/27 01:47:37;;;;;;;5.03;4.05;;;;;;;18.02;100.00;101336.09;5009563;28;20199;-48
2022/06/27 01:50:07;;;;;;;7.50;4.53;;;;;;;18.04;100.00;101342.28;5007119;28;20204;-49
2022/06/27 01:52:40;;;;;;;7.88;4.72;;;;;;;18.00;100.00;101323.59;5008830;28;20181;-52
2022/06/27 01:55:07;;;;;;;7.18;4.30;;;;;;;18.03;100.00;101312.56;5010189;28;20172;-52
2022/06/27 01:57:35;;;;;;;6.15;4.03;;;;;;;18.01;100.00;101311.78;5009311;28;20203;-50
2022/06/27 02:00:05;;;;;;;7.82;4.35;;;;;;;18.00;100.00;101310.91;5008802;28;20211;-47
2022/06/27 02:02:42;;;;;;;7.38;4.00;;;;;;;18.00;100.00;101323.59;5010399;28;20666;-48
2022/06/27 02:05:08;;;;;;;6.75;4.22;;;;;;;18.03;100.00;101320.69;5008586;28;20243;-48
2022/06/27 02:07:36;;;;;;;12.23;4.50;;;;;;;18.02;100.00;101308.97;5010372;28;20632;-45
2022/06/27 02:10:02;;;;;;;7.60;4.22;;;;;;;18.04;100.00;101317.03;5008818;28;20307;-47
2022/06/27 02:12:29;;;;;;;10.25;4.20;;;;;;;18.03;100.00;101313.41;5008782;28;20169;-45
2022/06/27 02:14:55;;;;;;;9.25;4.10;;;;;;;18.00;100.00;101310.91;5009726;28;20245;-44
2022/06/27 02:17:30;;;;;;;6.82;3.53;;;;;;;17.99;100.00;101295.59;5008667;28;20582;-43
2022/06/27 02:19:56;;;;;;;5.95;3.60;;;;;;;18.04;100.00;101292.63;4992789;28;20295;-42
2022/06/27 02:22:22;;;;;;;8.52;3.70;;;;;;;18.03;100.00;101290.84;5008572;28;20717;-46
2022/06/27 02:24:47;;;;;;;5.97;3.33;;;;;;;18.00;100.00;101291.06;5009796;28;20186;-48
2022/06/27 02:27:13;;;;;;;5.00;3.15;;;;;;;18.06;100.00;101288.84;5009645;28;20260;-41
2022/06/27 02:29:40;;;;;;;6.57;3.70;;;;;;;18.05;100.00;101280.78;5009703;28;20774;-49
2022/06/27 02:32:06;;;;;;;6.28;3.88;;;;;;;18.01;100.00;101284.66;5009706;28;20173;-44
2022/06/27 02:34:34;;;;;;;7.22;3.83;;;;;;;18.05;100.00;101283.50;5009238;28;20266;-47
2022/06/27 02:37:02;;;;;;;5.95;3.63;;;;;;;18.04;100.00;101292.63;5008326;28;20261;-44
2022/06/27 02:39:33;;;;;;;5.93;3.75;;;;;;;18.03;100.00;101286.31;5008184;28;20682;-45
2022/06/27 02:42:01;;;;;;;6.95;4.20;;;;;;;18.06;100.00;101298.78;5010164;28;20169;-42
2022/06/27 02:44:28;;;;;;;5.72;3.58;;;;;;;18.14;100.00;101317.31;5009419;28;20176;-46
2022/06/27 02:46:54;;;;;;;6.20;3.95;;;;;;;18.19;100.00;101347.72;5010473;28;20200;-44
2022/06/27 02:49:20;;;;;;;7.30;3.40;;;;;;;18.23;100.00;101355.56;5027832;28;20198;-47
2022/06/27 02:51:59;;;;;;;4.43;3.25;;;;;;;18.32;100.00;101368.59;5032092;28;20566;-46
2022/06/27 02:54:35;;;;;;;7.28;3.38;;;;;;;18.22;100.00;101391.81;5031468;28;20495;-42
2022/06/27 02:57:30;;;;;;;5.38;3.05;;;;;;;18.23;100.00;101390.81;5031361;28;20675;-44
2022/06/27 02:59:58;;;;;;;5.72;2.58;;;;;;;18.19;100.00;101392.00;5031806;28;20180;-46
2022/06/27 03:02:27;;;;;;;6.50;2.60;;;;;;;18.17;100.00;101383.09;5032113;28;20188;-46
2022/06/27 03:05:02;;;;;;;3.40;2.50;;;;;;;18.27;100.00;101373.41;5031184;28;20187;-46
2022/06/27 03:07:40;;;;;;;4.75;2.90;;;;;;;18.22;100.00;101377.38;5031261;28;20252;-50
2022/06/27 03:10:08;;;;;;;5.47;2.40;;;;;;;18.15;100.00;101365.16;5032874;28;20199;-45
2022/06/27 03:12:37;;;;;;;2.92;2.35;;;;;;;18.10;100.00;101371.75;5031708;28;20195;-49
2022/06/27 03:15:04;;;;;;;3.60;2.20;;;;;;;18.15;100.00;101370.56;5032342;28;20208;-50
2022/06/27 03:17:29;;;;;;;2.70;2.10;;;;;;;18.23;100.00;101387.25;5032576;28;20203;-50
2022/06/27 03:20:13;;;;;;;5.32;2.10;;;;;;;18.03;99.58;101388.47;5032254;28;20230;-43
2022/06/27 03:22:53;;;;;;;5.70;2.20;;;;;;;17.94;99.39;101386.31;5031241;28;20175;-47
2022/06/27 03:25:18;;;;;;;5.30;2.28;;;;;;;18.03;99.36;101380.34;5032875;28;20234;-45
2022/06/27 03:27:44;;;;;;;2.70;2.20;;;;;;;18.10;98.77;101387.13;5032348;28;20655;-48
2022/06/27 03:30:10;;;;;;;4.55;2.33;;;;;;;17.88;98.36;101398.41;5032824;28;20227;-44
2022/06/27 03:32:36;;;;;;;6.40;2.47;;;;;;;17.76;98.50;101393.69;5031370;28;20211;-46
2022/06/27 03:35:07;;;;;;;3.95;2.28;;;;;;;17.87;98.51;101391.25;5030968;28;20246;-50
2022/06/27 03:37:34;;;;;;;3.45;2.08;;;;;;;17.82;98.22;101379.78;5031583;28;20258;-47
2022/06/27 03:40:01;;;;;;;3.25;1.75;;;;;;;17.75;97.95;101370.25;5031202;28;20255;-46
2022/06/27 03:42:28;;;;;;;2.33;1.95;;;;;;;17.82;97.51;101377.97;5031357;28;20176;-44
2022/06/27 03:44:54;;;;;;;5.00;2.33;;;;;;;17.81;97.50;101378.03;5032131;28;20666;-44
2022/06/27 03:47:20;;;;;;;2.28;2.08;;;;;;;17.81;97.51;101387.00;5021238;28;20200;-45
2022/06/27 03:50:13;;;;;;;4.43;2.05;;;;;;;17.75;97.56;101402.78;5010774;28;20216;-45
2022/06/27 03:52:40;;;;;;;3.35;2.10;;;;;;;17.64;97.51;101412.41;5011448;28;20217;-44
2022/06/27 03:55:07;;;;;;;5.78;2.13;;;;;;;17.46;96.02;101395.38;5011020;28;20180;-46
2022/06/27 03:57:45;;;;;;;3.72;1.95;;;;;;;17.32;95.59;101381.78;5010466;28;20203;-46
2022/06/27 04:00:11;;;;;;;2.55;1.90;;;;;;;17.18;95.13;101378.97;4987982;28;20169;-44
2022/06/27 04:02:41;;;;;;;4.40;1.83;;;;;;;16.99;95.28;101374.63;5009596;28;20644;-47
2022/06/27 04:05:25;;;;;;;3.95;1.92;;;;;;;16.77;95.63;101369.50;5012742;28;20187;-43
2022/06/27 04:07:51;;;;;;;3.47;1.55;;;;;;;16.77;95.64;101355.97;5012143;28;20271;-42
2022/06/27 04:10:17;;;;;;;4.10;2.05;;;;;;;16.73;96.12;101351.69;4994298;28;20200;-43
2022/06/27 04:12:42;;;;;;;2.45;1.77;;;;;;;16.68;96.89;101332.13;4994343;28;20259;-43
2022/06/27 04:15:40;;;;;;;2.30;1.92;;;;;;;16.59;97.28;101321.81;5000055;28;20192;-47
2022/06/27 04:18:24;;;;;;;4.80;2.20;;;;;;;16.65;97.78;101332.31;5011869;28;20175;-48
2022/06/27 04:20:59;;;;;;;2.80;1.80;;;;;;;16.59;98.27;101321.81;5012540;28;20212;-45
2022/06/27 04:23:35;;;;;;;2.97;1.98;;;;;;;16.82;98.80;101334.97;5010644;28;20215;-44
2022/06/27 04:26:09;;;;;;;3.17;1.95;;;;;;;16.76;98.09;101346.09;5011955;28;20634;-44
2022/06/27 04:28:36;;;;;;;2.33;2.05;;;;;;;16.86;97.98;101346.50;5010764;28;20308;-43
2022/06/27 04:31:02;;;;;;;3.28;2.08;;;;;;;17.01;97.79;101351.06;5010390;28;20315;-45
2022/06/27 04:33:29;;;;;;;4.57;2.20;;;;;;;16.93;97.36;101353.31;5010246;28;20255;-44
2022/06/27 04:35:54;;;;;;;3.13;2.38;;;;;;;16.82;97.51;101337.69;5011333;28;20279;-42
2022/06/27 04:38:20;;;;;;;3.72;2.08;;;;;;;16.67;98.70;101331.25;5012008;28;20268;-40
2022/06/27 04:41:25;;;;;;;6.90;3.00;;;;;;;16.47;100.00;101340.47;5011411;28;20279;-43
2022/06/27 04:43:53;;;;;;;7.03;2.25;;;;;;;16.56;100.00;101332.81;5010138;28;20213;-41
2022/06/27 04:46:19;;;;;;;4.57;2.90;;;;;;;16.44;100.00;101334.34;5010062;28;20306;-43
2022/06/27 04:48:48;;;;;;;6.72;2.85;;;;;;;16.42;100.00;101322.75;5011590;28;20205;-47
2022/06/27 04:51:15;;;;;;;5.28;3.28;;;;;;;16.36;100.00;101328.50;5026956;28;20213;-47
2022/06/27 04:53:43;;;;;;;4.30;3.35;;;;;;;16.43;100.00;101341.59;5009486;28;20184;-45
2022/06/27 04:56:09;;;;;;;7.47;3.80;;;;;;;16.53;100.00;101354.59;5011355;28;20204;-45
2022/06/27 04:58:35;;;;;;;7.53;3.65;;;;;;;16.81;100.00;101378.34;5010065;28;20180;-43
2022/06/27 05:01:01;;;;;;;6.15;3.58;;;;;;;16.88;100.00;101377.06;5026753;28;20184;-44
2022/06/27 05:03:40;;;;;;;5.47;4.35;;;;;;;16.69;100.00;101363.66;5009280;28;20698;-44
2022/06/27 05:06:14;;;;;;;6.80;4.72;;;;;;;16.73;100.00;101357.09;5026491;28;20196;-44
2022/06/27 05:08:41;;;;;;;14.43;5.32;;;;;;;16.75;100.00;101359.72;5025668;28;20188;-44
2022/06/27 05:11:07;;;;;;;7.75;5.13;;;;;;;16.88;100.00;101363.53;5026417;28;20212;-44
2022/06/27 05:13:32;;;;;;;9.13;5.65;;;;;;;16.84;100.00;101351.13;5026198;28;20175;-45
2022/06/27 05:16:04;;;;;;;15.85;6.38;;;;;;;16.81;100.00;101335.91;5026367;28;20267;-44
2022/06/27 05:18:29;;;;;;;11.90;6.75;;;;;;;16.74;100.00;101331.78;5026210;28;20176;-44
2022/06/27 05:20:55;;;;;;;9.85;6.35;;;;;;;16.63;100.00;101326.09;5011010;28;20231;-44
2022/06/27 05:23:21;;;;;;;9.90;6.43;;;;;;;16.57;100.00;101308.38;5026054;28;20189;-45
2022/06/27 05:25:47;;;;;;;10.25;6.57;;;;;;;16.63;100.00;101313.44;5026001;28;20638;-45
2022/06/27 05:28:12;;;;;;;14.15;8.23;;;;;;;16.52;100.00;101307.75;5010925;28;20528;-47
2022/06/27 05:30:38;;;;;;;16.77;7.93;;;;;;;16.58;100.00;101291.19;5010837;28;20277;-43
2022/06/27 05:33:05;;;;;;;16.92;8.00;;;;;;;16.69;100.00;101296.00;5025436;28;20219;-47
2022/06/27 05:35:31;;;;;;;18.42;8.05;;;;;;;16.79;100.00;101294.53;5025934;28;20554;-47
2022/06/27 05:37:57;;;;;;;20.88;7.97;;;;;;;16.78;100.00;101283.78;5009235;28;20184;-45
2022/06/27 05:40:23;;;;;;;21.67;7.97;;;;;;;16.76;100.00;101286.56;5025875;28;20312;-44
2022/06/27 05:42:49;;;;;;;26.80;8.00;;;;;;;16.88;100.00;101299.44;5009374;28;20184;-44
2022/06/27 05:45:17;;;;;;;25.48;8.20;;;;;;;16.86;100.00;101293.25;5008820;28;20222;-44
2022/06/27 05:48:18;;;;;;;23.33;7.57;;;;;;;16.89;100.00;101284.94;5017328;28;20191;-47
2022/06/27 05:50:59;;;;;;;15.32;6.80;;;;;;;16.96;100.00;101285.44;5011026;28;20208;-43
2022/06/27 05:53:28;;;;;;;20.58;7.45;;;;;;;17.01;100.00;101279.78;5008982;28;20177;-44
2022/06/27 05:55:54;;;;;;;26.40;7.82;;;;;;;17.05;100.00;101282.25;5008769;28;20188;-46
2022/06/27 05:58:20;;;;;;;28.58;8.15;;;;;;;17.22;100.00;101285.78;5009250;28;20176;-49
2022/06/27 06:00:46;;;;;;;33.95;7.78;;;;;;;17.35;100.00;101267.84;5010107;28;20243;-44
2022/06/27 06:03:12;;;;;;;29.17;8.52;;;;;;;17.29;100.00;101266.38;5008670;28;20184;-45
2022/06/27 06:05:40;;;;;;;27.58;8.40;;;;;;;17.34;100.00;101273.34;5008460;28;20552;-50
2022/06/27 06:08:06;;;;;;;26.60;7.72;;;;;;;17.38;100.00;101266.78;5009412;28;20188;-43
2022/06/27 06:10:35;;;;;;;23.73;8.73;;;;;;;17.43;100.00;101270.97;5008882;28;20231;-46
2022/06/27 06:13:03;;;;;;;26.95;8.40;;;;;;;17.49;100.00;101261.56;5008418;28;20189;-44
2022/06/27 06:15:31;;;;;;;22.20;7.53;;;;;;;17.55;100.00;101254.94;5008898;28;20176;-50
2022/06/27 06:18:01;;;;;;;28.88;7.65;;;;;;;17.53;100.00;101259.56;5008482;28;20180;-44
2022/06/27 06:20:28;;;;;;;27.75;8.05;;;;;;;17.53;100.00;101252.31;5009186;28;20259;-41
2022/06/27 06:22:55;;;;;;;21.67;7.00;;;;;;;17.49;100.00;101237.19;5024198;28;20259;-45
2022/06/27 06:25:21;;;;;;;21.25;7.18;;;;;;;17.48;100.00;101236.34;5028647;28;20180;-43
2022/06/27 06:27:46;;;;;;;22.67;6.80;;;;;;;17.52;100.00;101231.63;5029914;28;20437;-44
2022/06/27 06:30:13;;;;;;;18.85;7.80;;;;;;;17.60;100.00;101236.53;5027833;28;20192;-42
2022/06/27 06:32:42;;;;;;;17.10;7.10;;;;;;;17.68;100.00;101264.06;5011846;28;20187;-47
2022/06/27 06:35:08;;;;;;;19.95;8.07;;;;;;;17.75;100.00;101265.41;5026478;28;20199;-48
2022/06/27 06:37:38;;;;;;;8.60;6.85;;;;;;;17.98;100.00;101265.88;5029703;28;20227;-47
2022/06/27 06:40:04;;;;;;;15.68;7.15;;;;;;;18.04;100.00;101274.50;5027988;28;20669;-47
2022/06/27 06:42:30;;;;;;;28.13;23.13;;;;;;;17.95;100.00;101282.31;5028282;28;20193;-46
2022/06/27 06:45:14;;;;;;;31.40;27.60;;;;;;;18.00;100.00;101275.66;5029041;28;20654;-47
2022/06/27 06:47:55;;;;;;;22.70;12.98;;;;;;;17.84;100.00;101267.63;5024192;28;20538;-45
2022/06/27 06:50:23;;;;;;;16.10;6.30;;;;;;;17.72;100.00;101262.91;5008603;28;20201;-48
2022/06/27 06:52:50;;;;;;;21.58;6.45;;;;;;;17.66;100.00;101261.44;5009390;28;20181;-47
2022/06/27 06:55:18;;;;;;;16.42;6.10;;;;;;;17.63;100.00;101255.34;5009176;28;20246;-45
2022/06/27 06:57:44;;;;;;;16.05;6.05;;;;;;;17.49;100.00;101257.06;5009555;28;20698;-47
2022/06/27 07:00:11;;;;;;;20.88;7.05;;;;;;;17.47;100.00;101249.97;5008669;28;20648;-47
2022/06/27 07:02:37;;;;;;;18.13;6.93;;;;;;;17.43;100.00;101259.25;5009562;28;20180;-46
2022/06/27 07:05:04;;;;;;;24.02;7.53;;;;;;;17.33;100.00;101252.66;5009123;28;20192;-46
2022/06/27 07:07:32;;;;;;;25.35;7.32;;;;;;;17.39;100.00;101261.28;5009682;28;20207;-47
2022/06/27 07:09:59;;;;;;;23.65;7.47;;;;;;;17.38;100.00;101273.09;5009459;28;20239;-47
2022/06/27 07:12:25;;;;;;;23.63;7.97;;;;;;;17.37;100.00;101270.47;5008421;28;20169;-47
2022/06/27 07:14:54;;;;;;;18.05;8.10;;;;;;;17.39;100.00;101269.41;5008832;28;20231;-47
2022/06/27 07:17:24;;;;;;;29.35;8.63;;;;;;;17.39;100.00;101273.97;5009667;28;20736;-48
2022/06/27 07:19:52;;;;;;;26.70;9.15;;;;;;;17.40;100.00;101257.59;5009295;28;20188;-46
2022/06/27 07:22:19;;;;;;;26.27;9.48;;;;;;;17.42;100.00;101280.03;5009553;28;20295;-47
2022/06/27 07:24:48;;;;;;;26.58;9.60;;;;;;;17.43;100.00;101270.97;5009024;28;20543;-45
2022/06/27 07:27:18;;;;;;;26.83;9.18;;;;;;;17.43;100.00;101251.13;5009307;28;20200;-46
2022/06/27 07:29:44;;;;;;;29.23;9.63;;;;;;;17.41;100.00;101255.78;5009434;28;20203;-48
2022/06/27 07:32:10;;;;;;;23.60;8.82;;;;;;;17.40;100.00;101268.41;5010029;28;20664;-45
2022/06/27 07:34:36;;;;;;;28.73;9.38;;;;;;;17.43;100.00;101267.38;5012478;28;20960;-46
2022/06/27 07:37:03;;;;;;;26.17;9.63;;;;;;;17.27;100.00;101259.28;5010823;28;20668;-47
2022/06/27 07:39:28;;;;;;;26.65;10.15;;;;;;;17.32;100.00;101253.59;5012877;28;20193;-48
2022/06/27 07:41:54;;;;;;;23.75;10.02;;;;;;;17.35;100.00;101245.31;5012476;28;20183;-48
2022/06/27 07:44:22;;;;;;;27.42;10.18;;;;;;;17.34;100.00;101246.25;5012369;28;20204;-46
2022/06/27 07:46:48;;;;;;;22.55;10.77;;;;;;;17.41;100.00;101240.38;5010600;28;20279;-47
2022/06/27 07:49:14;;;;;;;27.58;10.13;;;;;;;17.53;100.00;101241.47;5011707;28;20231;-47
2022/06/27 07:51:41;;;;;;;28.92;10.18;;;;;;;17.51;100.00;101232.56;5011439;28;20175;-47
2022/06/27 07:54:07;;;;;;;28.65;10.23;;;;;;;17.64;100.00;101233.53;5004551;28;20184;-47
2022/06/27 07:56:34;;;;;;;32.40;11.15;;;;;;;17.71;100.00;101236.78;5012052;28;20730;-46
2022/06/27 07:59:00;;;;;;;24.17;10.90;;;;;;;17.59;100.00;101240.22;5016181;28;20243;-48
2022/06/27 08:01:28;;;;;;;29.73;11.38;;;;;;;17.58;100.00;101242.09;5017952;28;20173;-48
2022/06/27 08:03:54;;;;;;;23.55;9.93;;;;;;;17.56;100.00;101245.81;5019652;28;20188;-48
2022/06/27 08:06:22;;;;;;;30.00;10.98;;;;;;;17.57;100.00;101253.00;5010301;28;20266;-47
2022/06/27 08:08:54;;;;;;;22.10;10.55;;;;;;;17.54;100.00;101253.19;5010677;28;20184;-47
2022/06/27 08:11:28;;;;;;;28.38;11.00;;;;;;;17.46;100.00;101259.94;5011715;28;20188;-46
2022/06/27 08:13:57;;;;;;;33.00;11.25;;;;;;;17.50;100.00;101260.63;5011248;28;20279;-45
2022/06/27 08:16:24;;;;;;;26.27;10.60;;;;;;;17.57;100.00;101256.56;5011678;28;20235;-47
2022/06/27 08:18:51;;;;;;;24.23;10.98;;;;;;;17.57;100.00;101272.84;5011912;28;20554;-48
2022/06/27 08:21:25;;;;;;;33.67;11.57;;;;;;;17.49;100.00;101280.53;5011617;28;20173;-47
2022/06/27 08:23:53;;;;;;;30.20;11.48;;;;;;;17.55;100.00;101288.31;5011693;28;20184;-48
2022/06/27 08:26:20;;;;;;;19.52;9.57;;;;;;;17.79;100.00;101296.78;5011414;28;20607;-47
2022/06/27 08:28:47;;;;;;;23.70;9.75;;;;;;;17.98;100.00;101298.41;5010422;28;20231;-49
2022/06/27 08:31:13;;;;;;;30.13;10.30;;;;;;;17.97;100.00;101315.63;5014500;28;20238;-49
2022/06/27 08:33:40;;;;;;;26.05;10.02;;;;;;;18.01;100.00;101318.06;5008634;28;20592;-49
2022/06/27 08:36:07;;;;;;;21.40;8.88;;;;;;;18.07;100.00;101331.25;5014638;28;20204;-48
2022/06/27 08:38:39;;;;;;;27.40;8.95;;;;;;;17.95;100.00;101353.72;5031122;28;20638;-48
2022/06/27 08:41:06;;;;;;;28.08;10.02;;;;;;;17.83;100.00;101360.72;5031205;28;20187;-48
2022/06/27 08:43:33;;;;;;;20.23;9.68;;;;;;;17.74;100.00;101357.69;5029649;28;20537;-47
2022/06/27 08:45:58;;;;;;;20.95;8.02;;;;;;;17.75;100.00;101357.56;5031033;28;20243;-46
2022/06/27 08:48:24;;;;;;;20.50;8.93;;;;;;;17.70;100.00;101357.84;5017150;28;20224;-48
2022/06/27 08:50:50;;;;;;;22.48;8.25;;;;;;;17.45;100.00;101361.16;5007177;28;20591;-49
2022/06/27 08:53:17;;;;;;;22.92;8.68;;;;;;;17.37;100.00;101340.88;5009672;28;20668;-47
2022/06/27 08:55:47;;;;;;;20.10;8.05;;;;;;;17.57;100.00;101318.91;5013703;28;20678;-48
2022/06/27 08:58:13;;;;;;;23.98;9.27;;;;;;;17.21;100.00;101303.88;5010906;28;20389;-47
2022/06/27 09:00:45;;;;;;;25.13;9.32;;;;;;;17.39;100.00;101309.16;5009388;28;20184;-45
2022/06/27 09:03:18;;;;;;;13.90;9.43;;;;;;;17.43;100.00;101324.28;5010891;28;20265;-47
2022/06/27 09:05:54;;;;;;;23.63;9.25;;;;;;;17.29;100.00;101308.81;5011096;28;20169;-47
2022/06/27 09:08:20;;;;;;;23.05;10.00;;;;;;;17.25;100.00;101299.13;5010984;28;20234;-48
2022/06/27 09:10:46;;;;;;;24.77;10.32;;;;;;;17.14;100.00;101288.06;5009753;28;20625;-47
2022/06/27 09:13:17;;;;;;;24.73;9.65;;;;;;;17.05;100.00;101271.41;5010045;28;20181;-49
2022/06/27 09:16:01;;;;;;;18.60;9.80;;;;;;;16.89;100.00;101275.94;5011066;28;20651;-47
2022/06/27 09:18:33;;;;;;;16.30;9.30;;;;;;;16.83;100.00;101279.00;5010620;28;20196;-47
2022/06/27 09:21:04;;;;;;;25.23;9.77;;;;;;;16.96;100.00;101280.03;5011052;28;20540;-48
2022/06/27 09:23:29;;;;;;;21.25;9.93;;;;;;;16.95;100.00;101289.13;5010346;28;20208;-50
2022/06/27 09:26:04;;;;;;;24.58;9.68;;;;;;;17.08;100.00;101298.28;5010746;28;20593;-48
2022/06/27 09:28:37;;;;;;;24.48;10.07;;;;;;;16.92;100.00;101281.16;5010890;28;20256;-45
2022/06/27 09:31:03;;;;;;;24.63;10.52;;;;;;;16.80;100.00;101271.94;5010579;28;20200;-48
2022/06/27 09:33:31;;;;;;;24.25;10.45;;;;;;;16.78;100.00;101259.44;5010217;28;20195;-48
2022/06/27 09:35:57;;;;;;;30.05;11.27;;;;;;;16.83;100.00;101273.59;5010348;28;20196;-47
2022/06/27 09:38:23;;;;;;;28.42;12.10;;;;;;;16.83;100.00;101270.88;5010839;28;20181;-48
2022/06/27 09:40:49;;;;;;;25.58;11.13;;;;;;;16.93;100.00;101269.41;5009230;28;20577;-46
2022/06/27 09:43:16;;;;;;;30.58;11.00;;;;;;;17.02;100.00;101263.44;5010185;28;20184;-48
2022/06/27 09:45:42;;;;;;;22.17;11.00;;;;;;;17.19;100.00;101272.44;5019201;28;20663;-47
2022/06/27 09:48:09;;;;;;;22.30;11.00;;;;;;;17.29;100.00;101270.91;5029581;28;20195;-48
2022/06/27 09:50:39;;;;;;;20.13;10.15;;;;;;;17.43;100.00;101283.66;5030200;28;20267;-47
2022/06/27 09:53:05;;;;;;;23.95;10.88;;;;;;;17.35;100.00;101285.94;5027692;28;20183;-45
2022/06/27 09:55:32;;;;;;;25.95;10.65;;;;;;;17.23;100.00;101269.44;5011600;28;20196;-46
2022/06/27 09:57:59;;;;;;;29.48;10.45;;;;;;;17.13;100.00;101279.06;5010043;28;20362;-47
2022/06/27 10:00:27;;;;;;;22.27;11.98;;;;;;;17.16;100.00;101284.28;5010433;28;20169;-47
2022/06/27 10:02:53;;;;;;;27.70;12.93;;;;;;;17.20;100.00;101274.16;5010486;28;20189;-48
2022/06/27 10:05:19;;;;;;;26.35;13.75;;;;;;;17.27;100.00;101271.00;5009765;28;20251;-47
2022/06/27 10:08:00;;;;;;;19.92;12.85;;;;;;;17.45;100.00;101277.16;5010126;28;20719;-48
2022/06/27 10:10:27;;;;;;;22.45;13.73;;;;;;;17.37;100.00;101286.72;5009980;28;20200;-47
2022/06/27 10:13:02;;;;;;;16.65;13.52;;;;;;;17.34;100.00;101276.03;5010049;28;20337;-48
2022/06/27 10:15:33;;;;;;;19.50;13.50;;;;;;;17.29;100.00;101282.63;5010243;28;20650;-48
2022/06/27 10:18:01;;;;;;;17.08;11.98;;;;;;;17.20;100.00;101288.56;5010103;28;20165;-48
2022/06/27 10:20:29;;;;;;;18.30;12.10;;;;;;;17.29;100.00;101296.19;5010256;28;20180;-48
2022/06/27 10:23:13;;;;;;;20.67;12.25;;;;;;;17.21;100.00;101303.88;5009791;28;20278;-47
2022/06/27 10:25:41;;;;;;;14.13;10.88;;;;;;;17.23;100.00;101301.94;5010084;28;20185;-49
2022/06/27 10:28:07;;;;;;;13.43;10.95;;;;;;;17.15;100.00;101298.81;5010022;28;20172;-50
2022/06/27 10:30:49;;;;;;;18.35;11.80;;;;;;;17.17;100.00;101305.00;5010216;28;20216;-49
2022/06/27 10:33:18;;;;;;;12.93;10.90;;;;;;;17.17;100.00;101318.53;5008198;28;20599;-47
2022/06/27 10:35:59;;;;;;;17.90;10.80;;;;;;;17.13;100.00;101319.69;5009625;28;20625;-48
2022/06/27 10:38:42;;;;;;;14.55;10.80;;;;;;;17.26;100.00;101318.00;5010014;28;20195;-47
2022/06/27 10:41:31;;;;;;;17.52;12.63;;;;;;;17.43;100.00;101306.19;5009928;28;20311;-48
2022/06/27 10:43:59;;;;;;;16.63;11.85;;;;;;;17.47;100.00;101315.88;5001053;28;20192;-48
2022/06/27 10:46:24;;;;;;;15.02;11.48;;;;;;;17.64;100.00;101314.84;5009753;28;20675;-47
2022/06/27 10:48:57;;;;;;;15.30;10.15;;;;;;;17.81;100.00;101313.84;5009982;28;20218;-48
2022/06/27 10:51:26;;;;;;;13.82;10.80;;;;;;;17.89;100.00;101305.28;5009705;28;20211;-49
2022/06/27 10:54:09;;;;;;;11.82;9.75;;;;;;;18.05;100.00;101300.63;5009448;28;20332;-48
2022/06/27 10:56:49;;;;;;;16.90;10.77;;;;;;;18.08;100.00;101307.69;5009384;28;20622;-49
2022/06/27 10:59:15;;;;;;;15.77;10.32;;;;;;;18.20;100.00;101292.53;5009886;28;20296;-47
2022/06/27 11:01:50;;;;;;;18.75;9.95;;;;;;;18.14;100.00;101285.63;5009887;28;20158;-49
2022/06/27 11:04:35;;;;;;;11.95;7.82;;;;;;;18.24;100.00;101270.53;5009122;28;20183;-48
2022/06/27 11:07:04;;;;;;;21.70;9.50;;;;;;;18.08;100.00;101273.34;5010213;28;20640;-49
2022/06/27 11:09:47;;;;;;;11.75;9.07;;;;;;;17.94;100.00;101270.63;5013574;28;20168;-49
2022/06/27 11:12:16;;;;;;;15.50;9.82;;;;;;;17.82;100.00;101268.66;5013428;28;20181;-49
2022/06/27 11:14:49;;;;;;;14.32;8.90;;;;;;;17.70;100.00;101267.53;5012784;28;20191;-46
2022/06/27 11:17:27;;;;;;;17.00;8.77;;;;;;;17.83;100.00;101268.56;5013162;28;20201;-47
2022/06/27 11:20:14;;;;;;;14.35;8.85;;;;;;;17.82;100.00;101258.69;5013309;28;20183;-48